Time;durP1;ratioP1;P1;durP2;ratioP2;P2;SDS_P1;SDS_P2;PMS_P1;PMS_P2;Temp;Humidity;BMP_temperature;BMP_pressure;BME280_temperature;BME280_humidity;BME280_pressure;Samples;Min_cycle;Max_cycle;Signal;HPM_P1;HPM_P2
2022/06/24 00:02:10;;;;;;;1.52;0.60;;;;;;;-148.56;100.00;61375.16;4990216;28;20056;-33
2022/06/24 00:04:35;;;;;;;0.73;0.70;;;;;;;-148.56;100.00;61375.16;5007293;28;20076;-30
2022/06/24 00:07:01;;;;;;;0.80;0.60;;;;;;;-148.56;100.00;61375.16;5008768;28;20258;-33
2022/06/24 00:09:29;;;;;;;0.82;0.70;;;;;;;-148.56;100.00;61375.16;5010198;28;20058;-33
2022/06/24 00:12:05;;;;;;;1.35;0.63;;;;;;;-148.56;100.00;61375.16;5005157;28;20037;-33
2022/06/24 00:14:31;;;;;;;1.58;0.80;;;;;;;-148.56;100.00;61375.16;5004951;28;20030;-38
2022/06/24 00:17:03;;;;;;;0.55;0.50;;;;;;;-148.56;100.00;61375.16;5009985;28;20412;-33
2022/06/24 00:19:30;;;;;;;1.30;0.70;;;;;;;-148.56;100.00;61375.16;5006552;28;20034;-33
2022/06/24 00:22:07;;;;;;;1.15;0.60;;;;;;;-148.56;100.00;61375.16;5006315;28;20029;-33
2022/06/24 00:24:34;;;;;;;0.80;0.60;;;;;;;-148.56;100.00;61375.16;5007577;28;20082;-33
2022/06/24 00:26:59;;;;;;;1.23;0.73;;;;;;;-148.56;100.00;61375.16;5007946;28;20033;-34
2022/06/24 00:29:30;;;;;;;1.80;0.65;;;;;;;-148.56;100.00;61375.16;5006435;28;20030;-35
2022/06/24 00:32:14;;;;;;;0.95;0.50;;;;;;;-148.56;100.00;61375.16;5006957;28;20116;-33
2022/06/24 00:34:39;;;;;;;1.15;0.70;;;;;;;-148.56;100.00;61375.16;5007807;28;20099;-35
2022/06/24 00:37:24;;;;;;;1.75;0.75;;;;;;;-148.56;100.00;61375.16;5005812;28;20026;-33
2022/06/24 00:39:53;;;;;;;2.95;0.70;;;;;;;-148.56;100.00;61375.16;5008182;28;20136;-35
2022/06/24 00:42:19;;;;;;;1.10;0.60;;;;;;;-148.56;100.00;61375.16;5006834;28;20065;-33
2022/06/24 00:45:03;;;;;;;1.15;0.77;;;;;;;-148.56;100.00;61375.16;4989947;28;20745;-34
2022/06/24 00:47:29;;;;;;;0.93;0.57;;;;;;;-148.56;100.00;61375.16;5000961;28;20076;-34
2022/06/24 00:49:55;;;;;;;1.30;0.60;;;;;;;-148.56;100.00;61375.16;5006442;28;20768;-30
2022/06/24 00:52:20;;;;;;;1.55;0.80;;;;;;;-148.56;100.00;61375.16;5006075;28;20577;-35
2022/06/24 00:54:46;;;;;;;1.60;0.70;;;;;;;-148.56;100.00;61375.16;5006340;28;20059;-35
2022/06/24 00:57:11;;;;;;;0.80;0.70;;;;;;;-148.56;100.00;61375.16;5007165;28;20025;-34
2022/06/24 00:59:36;;;;;;;0.80;0.70;;;;;;;-148.56;100.00;61375.16;5007354;28;20029;-37
2022/06/24 01:02:06;;;;;;;0.80;0.63;;;;;;;-148.56;100.00;61375.16;4989448;28;20036;-36
2022/06/24 01:04:32;;;;;;;0.70;0.50;;;;;;;-148.56;100.00;61375.16;5004200;28;20391;-35
2022/06/24 01:06:57;;;;;;;1.23;0.50;;;;;;;-148.56;100.00;61375.16;5015749;28;20025;-32
2022/06/24 01:09:22;;;;;;;1.25;0.60;;;;;;;-148.56;100.00;61375.16;5010555;28;20059;-36
2022/06/24 01:11:48;;;;;;;1.00;0.80;;;;;;;-148.56;100.00;61375.16;5011845;28;20879;-34
2022/06/24 01:14:13;;;;;;;1.08;0.60;;;;;;;-148.56;100.00;61375.16;5004708;28;20041;-34
2022/06/24 01:16:39;;;;;;;0.90;0.70;;;;;;;-148.56;100.00;61375.16;5010122;28;20075;-35
2022/06/24 01:19:06;;;;;;;1.83;0.60;;;;;;;-148.56;100.00;61375.16;5007090;28;20073;-36
2022/06/24 01:21:47;;;;;;;1.77;0.60;;;;;;;-148.56;100.00;61375.16;5005627;28;20025;-35
2022/06/24 01:24:18;;;;;;;2.03;0.60;;;;;;;-148.56;100.00;61375.16;5011342;28;20096;-36
2022/06/24 01:26:54;;;;;;;0.82;0.50;;;;;;;-148.56;100.00;61375.16;5008714;28;20030;-31
2022/06/24 01:29:20;;;;;;;0.77;0.57;;;;;;;-148.56;100.00;61375.16;5004576;28;20099;-36
2022/06/24 01:31:48;;;;;;;1.50;0.70;;;;;;;-148.56;100.00;61375.16;5010711;28;20030;-31
2022/06/24 01:34:14;;;;;;;1.38;0.63;;;;;;;-148.56;100.00;61375.16;5008018;28;20036;-35
2022/06/24 01:36:40;;;;;;;1.13;0.63;;;;;;;-148.56;100.00;61375.16;5010952;28;20638;-31
2022/06/24 01:39:06;;;;;;;1.15;0.60;;;;;;;-148.56;100.00;61375.16;5011388;28;20080;-36
2022/06/24 01:41:31;;;;;;;2.00;0.80;;;;;;;-148.56;100.00;61375.16;5011527;28;20734;-35
2022/06/24 01:43:57;;;;;;;1.38;0.50;;;;;;;-148.56;100.00;61375.16;5009876;28;20479;-33
2022/06/24 01:46:23;;;;;;;2.15;0.80;;;;;;;-148.56;100.00;61375.16;5010161;28;20045;-38
2022/06/24 01:48:48;;;;;;;0.98;0.60;;;;;;;-148.56;100.00;61375.16;5011181;28;20026;-31
2022/06/24 01:51:13;;;;;;;1.67;0.77;;;;;;;-148.56;100.00;61375.16;5010130;28;20029;-30
2022/06/24 01:53:39;;;;;;;1.15;0.55;;;;;;;-148.56;100.00;61375.16;5009018;28;20039;-34
2022/06/24 01:56:04;;;;;;;1.05;0.70;;;;;;;-148.56;100.00;61375.16;5009491;28;20083;-34
2022/06/24 01:58:30;;;;;;;1.17;0.70;;;;;;;-148.56;100.00;61375.16;5009386;28;20444;-33
2022/06/24 02:00:55;;;;;;;0.90;0.60;;;;;;;-148.56;100.00;61375.16;5009546;28;20066;-31
2022/06/24 02:03:21;;;;;;;1.30;0.60;;;;;;;-148.56;100.00;61375.16;5012178;28;20044;-29
2022/06/24 02:05:49;;;;;;;1.02;0.60;;;;;;;-148.56;100.00;61375.16;5007950;28;20115;-32
2022/06/24 02:08:14;;;;;;;1.17;0.70;;;;;;;-148.56;100.00;61375.16;5010376;28;20028;-35
2022/06/24 02:13:27;;;;;;;0.88;0.50;;;;;;;-148.56;100.00;61375.16;5008491;28;20045;-31
2022/06/24 02:15:56;;;;;;;0.68;0.55;;;;;;;-148.56;100.00;61375.16;5006850;28;20014;-36
2022/06/24 02:18:22;;;;;;;0.60;0.50;;;;;;;-148.56;100.00;61375.16;5004260;28;20025;-36
2022/06/24 02:20:48;;;;;;;0.90;0.47;;;;;;;-148.56;100.00;61375.16;5006825;28;20042;-35
2022/06/24 02:23:13;;;;;;;1.00;0.60;;;;;;;-148.56;100.00;61375.16;5008158;28;20022;-36
2022/06/24 02:25:39;;;;;;;1.00;0.50;;;;;;;-148.56;100.00;61375.16;5009949;28;20048;-35
2022/06/24 02:28:04;;;;;;;0.93;0.70;;;;;;;-148.56;100.00;61375.16;5008953;28;20144;-38
2022/06/24 02:30:30;;;;;;;0.65;0.60;;;;;;;-148.56;100.00;61375.16;5007325;28;20033;-33
2022/06/24 02:32:55;;;;;;;1.30;0.68;;;;;;;-148.56;100.00;61375.16;5009205;28;20030;-33
2022/06/24 02:35:21;;;;;;;1.45;0.73;;;;;;;-148.56;100.00;61375.16;5007003;28;20033;-36
2022/06/24 02:37:46;;;;;;;0.68;0.50;;;;;;;-148.56;100.00;61375.16;5006772;28;20036;-33
2022/06/24 02:42:56;;;;;;;0.85;0.60;;;;;;;-148.56;100.00;61375.16;5009769;28;20029;-37
2022/06/24 02:45:22;;;;;;;1.00;0.50;;;;;;;-148.56;100.00;61375.16;5008661;28;20022;-31
2022/06/24 02:47:47;;;;;;;1.08;0.70;;;;;;;-148.56;100.00;61375.16;5010435;28;20061;-30
2022/06/24 02:50:13;;;;;;;0.40;0.40;;;;;;;-148.56;100.00;61375.16;5007712;28;20030;-37
2022/06/24 02:52:38;;;;;;;1.33;0.70;;;;;;;-148.56;100.00;61375.16;5009842;28;20411;-35
2022/06/24 02:55:04;;;;;;;1.15;0.57;;;;;;;-148.56;100.00;61375.16;5008379;28;20038;-34
2022/06/24 02:57:29;;;;;;;1.25;0.60;;;;;;;-148.56;100.00;61375.16;5012209;28;20030;-34
2022/06/24 02:59:54;;;;;;;1.25;0.50;;;;;;;-148.56;100.00;61375.16;5010130;28;20623;-37
2022/06/24 03:02:20;;;;;;;0.88;0.55;;;;;;;-148.56;100.00;61375.16;5008842;28;20038;-36
2022/06/24 03:04:45;;;;;;;1.02;0.63;;;;;;;-148.56;100.00;61375.16;5010732;28;20095;-34
2022/06/24 03:07:11;;;;;;;0.80;0.50;;;;;;;-148.56;100.00;61375.16;5008691;28;20103;-31
2022/06/24 03:09:36;;;;;;;1.20;0.70;;;;;;;-148.56;100.00;61375.16;5004601;28;20033;-33
2022/06/24 03:12:01;;;;;;;1.08;0.50;;;;;;;-148.56;100.00;61375.16;5009140;28;20029;-34
2022/06/24 03:14:27;;;;;;;1.13;0.45;;;;;;;-148.56;100.00;61375.16;5007896;28;20034;-35
2022/06/24 03:16:52;;;;;;;1.30;0.60;;;;;;;-148.56;100.00;61375.16;5008642;28;20025;-36
2022/06/24 03:19:18;;;;;;;1.05;0.60;;;;;;;-148.56;100.00;61375.16;5004081;28;20523;-35
2022/06/24 03:21:43;;;;;;;1.77;0.60;;;;;;;-148.56;100.00;61375.16;5006438;28;20033;-35
2022/06/24 03:24:08;;;;;;;1.02;0.57;;;;;;;-148.56;100.00;61375.16;5008218;28;20029;-36
2022/06/24 03:26:34;;;;;;;0.90;0.60;;;;;;;-148.56;100.00;61375.16;5006656;28;21069;-36
2022/06/24 03:28:59;;;;;;;1.75;0.60;;;;;;;-148.56;100.00;61375.16;5008527;28;20038;-39
2022/06/24 03:31:25;;;;;;;0.90;0.40;;;;;;;-148.56;100.00;61375.16;5006656;28;20037;-35
2022/06/24 03:33:50;;;;;;;1.95;0.50;;;;;;;-148.56;100.00;61375.16;5006925;28;20990;-33
2022/06/24 03:36:15;;;;;;;1.27;0.80;;;;;;;-148.56;100.00;61375.16;5008681;28;20026;-33
2022/06/24 03:38:41;;;;;;;0.60;0.60;;;;;;;-148.56;100.00;61375.16;5011226;28;20412;-39
2022/06/24 03:41:06;;;;;;;0.60;0.40;;;;;;;-148.56;100.00;61375.16;5005430;28;20021;-32
2022/06/24 03:43:31;;;;;;;0.75;0.50;;;;;;;-148.56;100.00;61375.16;5004363;28;20037;-33
2022/06/24 03:46:01;;;;;;;0.90;0.50;;;;;;;-148.56;100.00;61375.16;5005922;28;20842;-34
2022/06/24 03:48:27;;;;;;;1.17;0.57;;;;;;;-148.56;100.00;61375.16;5005803;28;20025;-34
2022/06/24 03:50:52;;;;;;;0.63;0.50;;;;;;;-148.56;100.00;61375.16;5006289;28;20538;-35
2022/06/24 03:53:18;;;;;;;1.05;0.60;;;;;;;-148.56;100.00;61375.16;5009161;28;20040;-33
2022/06/24 03:55:50;;;;;;;0.82;0.52;;;;;;;-148.56;100.00;61375.16;5010660;28;20035;-35
2022/06/24 03:58:19;;;;;;;0.80;0.57;;;;;;;-148.56;100.00;61375.16;5010147;28;20953;-32
2022/06/24 04:00:44;;;;;;;0.85;0.50;;;;;;;-148.56;100.00;61375.16;5008131;28;20032;-34
2022/06/24 04:03:10;;;;;;;0.85;0.45;;;;;;;-148.56;100.00;61375.16;5010484;28;20446;-38
2022/06/24 04:05:35;;;;;;;0.88;0.70;;;;;;;-148.56;100.00;61375.16;5003441;28;20021;-37
2022/06/24 04:08:01;;;;;;;0.40;0.30;;;;;;;-148.56;100.00;61375.16;5008924;28;20037;-34
2022/06/24 04:10:26;;;;;;;1.38;0.60;;;;;;;-148.56;100.00;61375.16;5008162;28;20034;-37
2022/06/24 04:12:52;;;;;;;0.50;0.50;;;;;;;-148.56;100.00;61375.16;5010096;28;20036;-36
2022/06/24 04:15:17;;;;;;;1.80;0.50;;;;;;;-148.56;100.00;61375.16;5007244;28;20029;-33
2022/06/24 04:17:43;;;;;;;0.90;0.60;;;;;;;-148.56;100.00;61375.16;5011574;28;20037;-36
2022/06/24 04:20:09;;;;;;;0.90;0.47;;;;;;;-148.56;100.00;61375.16;5011684;28;20068;-33
2022/06/24 04:22:36;;;;;;;1.30;0.68;;;;;;;-148.56;100.00;61375.16;5007052;28;20057;-35
2022/06/24 04:25:01;;;;;;;1.50;0.50;;;;;;;-148.56;100.00;61375.16;5004081;28;20107;-36
2022/06/24 04:27:26;;;;;;;0.63;0.43;;;;;;;-148.56;100.00;61375.16;5008954;28;20772;-34
2022/06/24 04:29:57;;;;;;;0.98;0.65;;;;;;;-148.56;100.00;61375.16;5006015;28;20045;-37
2022/06/24 04:32:22;;;;;;;0.80;0.68;;;;;;;-148.56;100.00;61375.16;5005681;28;20029;-31
2022/06/24 04:34:47;;;;;;;0.70;0.47;;;;;;;-148.56;100.00;61375.16;5011264;28;20033;-33
2022/06/24 04:37:13;;;;;;;0.80;0.35;;;;;;;-148.56;100.00;61375.16;5010561;28;20026;-36
2022/06/24 04:39:38;;;;;;;0.90;0.50;;;;;;;-148.56;100.00;61375.16;5012211;28;20120;-36
2022/06/24 04:42:04;;;;;;;0.75;0.60;;;;;;;-148.56;100.00;61375.16;5007725;28;20026;-34
2022/06/24 04:44:29;;;;;;;0.60;0.50;;;;;;;-148.56;100.00;61375.16;5011475;28;20127;-35
2022/06/24 04:46:55;;;;;;;1.63;0.50;;;;;;;-148.56;100.00;61375.16;5011874;28;20029;-33
2022/06/24 04:49:20;;;;;;;0.70;0.55;;;;;;;-148.56;100.00;61375.16;5010087;28;20029;-33
2022/06/24 04:51:45;;;;;;;1.00;0.50;;;;;;;-148.56;100.00;61375.16;5012462;28;20029;-33
2022/06/24 04:54:11;;;;;;;1.77;0.60;;;;;;;-148.56;100.00;61375.16;5008669;28;20022;-32
2022/06/24 04:56:36;;;;;;;0.60;0.40;;;;;;;-148.56;100.00;61375.16;5010511;28;20651;-32
2022/06/24 04:59:02;;;;;;;1.17;0.60;;;;;;;-148.56;100.00;61375.16;5011857;28;20049;-31
2022/06/24 05:01:29;;;;;;;0.55;0.50;;;;;;;-148.56;100.00;61375.16;5014229;28;20037;-32
2022/06/24 05:03:55;;;;;;;1.13;0.47;;;;;;;-148.56;100.00;61375.16;5011667;28;20520;-32
2022/06/24 05:06:20;;;;;;;0.45;0.40;;;;;;;-148.56;100.00;61375.16;5010878;28;20036;-33
2022/06/24 05:08:47;;;;;;;0.85;0.50;;;;;;;-148.56;100.00;61375.16;5017488;28;20073;-31
2022/06/24 05:11:13;;;;;;;1.75;0.60;;;;;;;-148.56;100.00;61375.16;5011437;28;20037;-30
2022/06/24 05:13:38;;;;;;;1.33;0.70;;;;;;;-148.56;100.00;61375.16;5012694;28;20041;-34
2022/06/24 05:16:03;;;;;;;0.47;0.47;;;;;;;-148.56;100.00;61375.16;5010642;28;20021;-33
2022/06/24 05:18:29;;;;;;;1.00;0.63;;;;;;;-148.56;100.00;61375.16;5021273;28;20502;-35
2022/06/24 05:20:54;;;;;;;1.33;0.68;;;;;;;-148.56;100.00;61375.16;5011861;28;20029;-30
2022/06/24 05:23:20;;;;;;;0.50;0.45;;;;;;;-148.56;100.00;61375.16;5007139;28;20037;-34
2022/06/24 05:25:45;;;;;;;0.52;0.38;;;;;;;-148.56;100.00;61375.16;5009252;28;20021;-36
2022/06/24 05:28:10;;;;;;;0.57;0.45;;;;;;;-148.56;100.00;61375.16;5011903;28;20034;-36
2022/06/24 05:30:36;;;;;;;1.08;0.60;;;;;;;-148.56;100.00;61375.16;5008145;28;20033;-34
2022/06/24 05:33:02;;;;;;;1.42;0.70;;;;;;;-148.56;100.00;61375.16;5007712;28;20479;-33
2022/06/24 05:35:27;;;;;;;0.95;0.60;;;;;;;-148.56;100.00;61375.16;5008862;28;20108;-32
2022/06/24 05:37:53;;;;;;;0.55;0.50;;;;;;;-148.56;100.00;61375.16;5011115;28;20013;-33
2022/06/24 05:40:18;;;;;;;1.48;0.60;;;;;;;-148.56;100.00;61375.16;5007152;28;20037;-34
2022/06/24 05:42:43;;;;;;;1.27;0.57;;;;;;;-148.56;100.00;61375.16;5009670;28;20664;-39
2022/06/24 05:45:09;;;;;;;0.80;0.50;;;;;;;-148.56;100.00;61375.16;5007765;28;20412;-32
2022/06/24 05:47:35;;;;;;;1.80;0.57;;;;;;;-148.56;100.00;61375.16;5012849;28;20063;-35
2022/06/24 05:50:00;;;;;;;0.60;0.40;;;;;;;-148.56;100.00;61375.16;5009248;28;20471;-33
2022/06/24 05:55:09;;;;;;;0.77;0.45;;;;;;;-148.56;100.00;61375.16;5007765;28;20095;-29
2022/06/24 05:57:35;;;;;;;0.40;0.40;;;;;;;-148.56;100.00;61375.16;5011016;28;20025;-35
2022/06/24 06:00:00;;;;;;;0.40;0.40;;;;;;;-148.56;100.00;61375.16;5010216;28;20034;-35
2022/06/24 06:02:25;;;;;;;0.63;0.50;;;;;;;-148.56;100.00;61375.16;5010934;28;20109;-37
2022/06/24 06:04:51;;;;;;;1.10;0.60;;;;;;;-148.56;100.00;61375.16;5010933;28;20908;-36
2022/06/24 06:07:16;;;;;;;0.82;0.50;;;;;;;-148.56;100.00;61375.16;5010871;28;20048;-33
2022/06/24 06:09:42;;;;;;;1.75;0.75;;;;;;;-148.56;100.00;61375.16;5009565;28;20844;-33
2022/06/24 06:12:08;;;;;;;0.90;0.60;;;;;;;-148.56;100.00;61375.16;5011158;28;20025;-35
2022/06/24 06:14:33;;;;;;;0.90;0.40;;;;;;;-148.56;100.00;61375.16;5009023;28;20040;-34
2022/06/24 06:16:58;;;;;;;0.77;0.50;;;;;;;-148.56;100.00;61375.16;5006705;28;20062;-34
2022/06/24 06:19:24;;;;;;;0.47;0.30;;;;;;;-148.56;100.00;61375.16;5003846;28;20529;-33
2022/06/24 06:21:49;;;;;;;0.55;0.55;;;;;;;-148.56;100.00;61375.16;5006771;28;20068;-36
2022/06/24 06:24:14;;;;;;;1.02;0.40;;;;;;;-148.56;100.00;61375.16;5007569;28;20489;-35
2022/06/24 06:26:40;;;;;;;1.10;0.60;;;;;;;-148.56;100.00;61375.16;5010814;28;20041;-35
2022/06/24 06:29:05;;;;;;;0.80;0.50;;;;;;;-148.56;100.00;61375.16;5010656;28;20107;-36
2022/06/24 06:31:31;;;;;;;0.65;0.45;;;;;;;-148.56;100.00;61375.16;5011363;28;20622;-31
2022/06/24 06:33:56;;;;;;;0.90;0.50;;;;;;;-148.56;100.00;61375.16;5009143;28;20443;-30
2022/06/24 06:36:21;;;;;;;1.00;0.70;;;;;;;-148.56;100.00;61375.16;5008233;28;20530;-33
2022/06/24 06:38:47;;;;;;;1.92;0.57;;;;;;;-148.56;100.00;61375.16;5007262;28;20091;-35
2022/06/24 06:41:17;;;;;;;1.15;0.50;;;;;;;-148.56;100.00;61375.16;5007607;28;20022;-36
2022/06/24 06:43:42;;;;;;;1.00;0.60;;;;;;;-148.56;100.00;61375.16;5009238;28;20556;-32
2022/06/24 06:46:09;;;;;;;1.42;0.57;;;;;;;-148.56;100.00;61375.16;5007834;28;20033;-35
2022/06/24 06:48:35;;;;;;;1.90;0.70;;;;;;;-148.56;100.00;61375.16;5008375;28;20037;-37
2022/06/24 06:51:00;;;;;;;0.77;0.43;;;;;;;-148.56;100.00;61375.16;5009758;28;20506;-35
2022/06/24 06:53:26;;;;;;;0.43;0.43;;;;;;;-148.56;100.00;61375.16;5010779;28;20079;-34
2022/06/24 06:55:52;;;;;;;1.27;0.50;;;;;;;-148.56;100.00;61375.16;5009844;28;20173;-32
2022/06/24 06:58:21;;;;;;;0.50;0.50;;;;;;;-148.56;100.00;61375.16;5008529;28;20052;-37
2022/06/24 07:00:47;;;;;;;0.82;0.52;;;;;;;-148.56;100.00;61375.16;5009090;28;20142;-34
2022/06/24 07:03:12;;;;;;;0.40;0.40;;;;;;;-148.56;100.00;61375.16;5005794;28;20034;-33
2022/06/24 07:05:38;;;;;;;1.67;0.80;;;;;;;-148.56;100.00;61375.16;5010864;28;20029;-33
2022/06/24 07:08:04;;;;;;;1.58;0.50;;;;;;;-148.56;100.00;61375.16;5010546;28;20036;-33
2022/06/24 07:10:29;;;;;;;1.40;0.52;;;;;;;-148.56;100.00;61375.16;5009057;28;20043;-34
2022/06/24 07:12:55;;;;;;;0.82;0.40;;;;;;;-148.56;100.00;61375.16;5011275;28;20384;-35
2022/06/24 07:15:20;;;;;;;1.60;0.40;;;;;;;-148.56;100.00;61375.16;4981091;28;20034;-35
2022/06/24 07:17:45;;;;;;;0.50;0.40;;;;;;;-148.56;100.00;61375.16;4983666;28;20037;-30
2022/06/24 07:20:11;;;;;;;0.43;0.38;;;;;;;-148.56;100.00;61375.16;4985159;28;20026;-39
2022/06/24 07:22:36;;;;;;;0.50;0.40;;;;;;;-148.56;100.00;61375.16;4987414;28;20535;-35
2022/06/24 07:25:02;;;;;;;0.73;0.45;;;;;;;-148.56;100.00;61375.16;4989208;28;21148;-36
2022/06/24 07:27:27;;;;;;;1.67;0.60;;;;;;;-148.56;100.00;61375.16;4990930;28;20150;-37
2022/06/24 07:29:53;;;;;;;1.33;0.50;;;;;;;-148.56;100.00;61375.16;4988869;28;20040;-35
2022/06/24 07:32:18;;;;;;;0.80;0.47;;;;;;;-148.56;100.00;61375.16;5003952;28;20042;-35
2022/06/24 07:34:44;;;;;;;1.23;0.52;;;;;;;-148.56;100.00;61375.16;5011304;28;20087;-45
2022/06/24 07:37:09;;;;;;;0.98;0.50;;;;;;;-148.56;100.00;61375.16;5005097;28;20034;-34
2022/06/24 07:39:34;;;;;;;1.48;0.65;;;;;;;-148.56;100.00;61375.16;5004330;28;20030;-33
2022/06/24 07:42:00;;;;;;;0.80;0.52;;;;;;;-148.56;100.00;61375.16;5005420;28;20029;-38
2022/06/24 07:44:25;;;;;;;1.27;0.40;;;;;;;-148.56;100.00;61375.16;5005616;28;20029;-37
2022/06/24 07:46:51;;;;;;;1.35;0.68;;;;;;;-148.56;100.00;61375.16;5008342;28;20135;-33
2022/06/24 07:49:16;;;;;;;0.98;0.50;;;;;;;-148.56;100.00;61375.16;5004511;28;20030;-34
2022/06/24 07:51:42;;;;;;;1.38;0.47;;;;;;;-148.56;100.00;61375.16;5004331;28;20279;-29
2022/06/24 07:54:07;;;;;;;0.80;0.32;;;;;;;-148.56;100.00;61375.16;5006218;28;20102;-35
2022/06/24 07:59:18;;;;;;;2.15;0.40;;;;;;;-148.56;100.00;61375.16;5006327;28;20052;-32
2022/06/24 08:01:43;;;;;;;3.75;0.60;;;;;;;-148.56;100.00;61375.16;5008172;28;20030;-33
2022/06/24 08:04:09;;;;;;;0.88;0.50;;;;;;;-148.56;100.00;61375.16;5005010;28;20842;-33
2022/06/24 08:06:39;;;;;;;0.40;0.40;;;;;;;-148.56;100.00;61375.16;5005940;28;20042;-33
2022/06/24 08:09:05;;;;;;;0.77;0.50;;;;;;;-148.56;100.00;61375.16;5009140;28;20140;-32
2022/06/24 08:11:30;;;;;;;1.55;0.68;;;;;;;-148.56;100.00;61375.16;5010556;28;20466;-33
2022/06/24 08:13:56;;;;;;;0.50;0.47;;;;;;;-148.56;100.00;61375.16;5009011;28;20475;-32
2022/06/24 08:16:22;;;;;;;0.85;0.40;;;;;;;-148.56;100.00;61375.16;5008577;28;20037;-34
2022/06/24 08:18:48;;;;;;;0.70;0.50;;;;;;;-148.56;100.00;61375.16;5007384;28;20578;-34
2022/06/24 08:21:14;;;;;;;1.13;0.47;;;;;;;-148.56;100.00;61375.16;5009286;28;20038;-35
2022/06/24 08:23:39;;;;;;;1.08;0.50;;;;;;;-148.56;100.00;61375.16;5006070;28;20037;-34
2022/06/24 08:26:05;;;;;;;1.27;0.60;;;;;;;-148.56;100.00;61375.16;5010161;28;20040;-36
2022/06/24 08:28:30;;;;;;;0.63;0.47;;;;;;;-148.56;100.00;61375.16;5013082;28;20029;-31
2022/06/24 08:30:56;;;;;;;0.40;0.30;;;;;;;-148.56;100.00;61375.16;4993836;28;20092;-38
2022/06/24 08:33:21;;;;;;;0.70;0.47;;;;;;;-148.56;100.00;61375.16;4964872;28;20611;-34
2022/06/24 08:35:46;;;;;;;0.75;0.43;;;;;;;-148.56;100.00;61375.16;4966791;28;20033;-36
2022/06/24 08:38:12;;;;;;;0.65;0.40;;;;;;;-148.56;100.00;61375.16;4977331;28;20065;-34
2022/06/24 08:40:38;;;;;;;0.30;0.30;;;;;;;-148.56;100.00;61375.16;4972822;28;20923;-36
2022/06/24 08:43:03;;;;;;;1.02;0.60;;;;;;;-148.56;100.00;61375.16;4970256;28;20034;-35
2022/06/24 08:45:28;;;;;;;0.70;0.60;;;;;;;-148.56;100.00;61375.16;4963918;28;20048;-36
2022/06/24 08:47:54;;;;;;;1.23;0.60;;;;;;;-148.56;100.00;61375.16;4970748;28;20041;-36
2022/06/24 08:50:19;;;;;;;0.77;0.50;;;;;;;-148.56;100.00;61375.16;4971954;28;20032;-30
2022/06/24 08:52:50;;;;;;;0.85;0.43;;;;;;;-148.56;100.00;61375.16;4946149;28;20083;-34
2022/06/24 08:55:16;;;;;;;1.05;0.50;;;;;;;-148.56;100.00;61375.16;4972788;28;20029;-36
2022/06/24 08:57:41;;;;;;;0.70;0.43;;;;;;;-148.56;100.00;61375.16;4979445;28;20170;-35
2022/06/24 09:00:07;;;;;;;1.25;0.52;;;;;;;-148.56;100.00;61375.16;4965627;28;22981;-38
2022/06/24 09:02:33;;;;;;;0.68;0.57;;;;;;;-148.56;100.00;61375.16;4964640;28;20037;-34
2022/06/24 09:04:58;;;;;;;0.60;0.40;;;;;;;-148.56;100.00;61375.16;4976198;28;20030;-34
2022/06/24 09:07:25;;;;;;;0.50;0.50;;;;;;;-148.56;100.00;61375.16;4973812;28;20765;-33
2022/06/24 09:09:58;;;;;;;0.65;0.50;;;;;;;-148.56;100.00;61375.16;4974397;28;20057;-31
2022/06/24 09:12:23;;;;;;;0.40;0.40;;;;;;;-148.56;100.00;61375.16;4971518;28;20033;-36
2022/06/24 09:14:49;;;;;;;1.13;0.50;;;;;;;-148.56;100.00;61375.16;4971859;28;20040;-36
2022/06/24 09:17:14;;;;;;;0.55;0.43;;;;;;;-148.56;100.00;61375.16;4967211;28;21054;-32
2022/06/24 09:19:39;;;;;;;0.73;0.60;;;;;;;-148.56;100.00;61375.16;4960812;28;20033;-31
2022/06/24 09:22:06;;;;;;;3.05;0.60;;;;;;;-148.56;100.00;61375.16;4965271;28;20809;-35
2022/06/24 09:24:51;;;;;;;0.80;0.50;;;;;;;-148.56;100.00;61375.16;4966126;28;20038;-37
2022/06/24 09:27:17;;;;;;;0.70;0.45;;;;;;;-148.56;100.00;61375.16;4960833;28;20577;-33
2022/06/24 09:29:48;;;;;;;0.77;0.25;;;;;;;-148.56;100.00;61375.16;4971847;28;20034;-34
2022/06/24 09:32:14;;;;;;;0.98;0.60;;;;;;;-148.56;100.00;61375.16;5005389;28;20030;-33
2022/06/24 09:35:06;;;;;;;0.68;0.40;;;;;;;-148.56;100.00;61375.16;5012173;28;20058;-32
2022/06/24 09:37:40;;;;;;;;;;;;;;;-148.56;100.00;61375.16;5010332;28;21072;-36
2022/06/24 09:40:24;;;;;;;0.70;0.40;;;;;;;-148.56;100.00;61375.16;5014536;28;19921;-34
2022/06/24 09:43:05;;;;;;;1.20;0.55;;;;;;;-148.56;100.00;61375.16;5009097;28;20090;-36
2022/06/24 09:45:44;;;;;;;;;;;;;;;-148.56;100.00;61375.16;5013131;28;20029;-35
2022/06/24 09:48:11;;;;;;;0.60;0.40;;;;;;;-148.56;100.00;61375.16;5008278;28;19920;-33
2022/06/24 09:50:36;;;;;;;1.00;0.60;;;;;;;-148.56;100.00;61375.16;5012087;28;20546;-31
2022/06/24 09:53:02;;;;;;;0.50;0.50;;;;;;;-148.56;100.00;61375.16;5010537;28;20041;-32
2022/06/24 09:55:28;;;;;;;0.68;0.50;;;;;;;-148.56;100.00;61375.16;5009212;28;20026;-31
2022/06/24 09:57:53;;;;;;;0.73;0.60;;;;;;;-148.56;100.00;61375.16;5010487;28;20037;-36
2022/06/24 10:03:02;;;;;;;0.40;0.40;;;;;;;-148.56;100.00;61375.16;5008703;28;20877;-31
2022/06/24 10:05:28;;;;;;;0.55;0.50;;;;;;;-148.56;100.00;61375.16;4990749;28;20037;-35
2022/06/24 10:07:53;;;;;;;0.40;0.40;;;;;;;-148.56;100.00;61375.16;5005722;28;20025;-35
2022/06/24 10:10:19;;;;;;;0.65;0.40;;;;;;;-148.56;100.00;61375.16;4994018;28;20119;-34
2022/06/24 10:12:49;;;;;;;1.05;0.50;;;;;;;-148.56;100.00;61375.16;4990301;28;20678;-35
2022/06/24 10:15:15;;;;;;;0.60;0.40;;;;;;;-148.56;100.00;61375.16;5009823;28;20029;-36
2022/06/24 10:17:42;;;;;;;0.40;0.40;;;;;;;-148.56;100.00;61375.16;5006730;28;20029;-32
2022/06/24 10:20:08;;;;;;;1.02;0.50;;;;;;;-148.56;100.00;61375.16;5009975;28;20065;-34
2022/06/24 10:22:46;;;;;;;0.63;0.40;;;;;;;-148.56;100.00;61375.16;4992448;28;20030;-34
2022/06/24 10:25:21;;;;;;;1.10;0.63;;;;;;;-148.56;100.00;61375.16;5008593;28;20067;-33
2022/06/24 10:28:04;;;;;;;0.63;0.52;;;;;;;-148.56;100.00;61375.16;5007062;28;20148;-33
2022/06/24 10:30:48;;;;;;;1.23;0.60;;;;;;;-148.56;100.00;61375.16;5010191;28;20029;-34
2022/06/24 10:33:19;;;;;;;1.15;0.50;;;;;;;-148.56;100.00;61375.16;5007918;28;20049;-37
2022/06/24 10:35:59;;;;;;;1.20;0.60;;;;;;;-148.56;100.00;61375.16;5003372;28;20123;-36
2022/06/24 10:38:26;;;;;;;0.70;0.45;;;;;;;-148.56;100.00;61375.16;5002512;28;20387;-36
2022/06/24 10:40:52;;;;;;;1.27;0.60;;;;;;;-148.56;100.00;61375.16;5006435;28;20924;-37
2022/06/24 10:43:38;;;;;;;0.43;0.40;;;;;;;-148.56;100.00;61375.16;5007415;28;20049;-39
2022/06/24 10:46:13;;;;;;;0.85;0.50;;;;;;;-148.56;100.00;61375.16;5006361;28;20075;-37
2022/06/24 10:48:44;;;;;;;1.05;0.50;;;;;;;-148.56;100.00;61375.16;5006748;28;20392;-38
2022/06/24 10:51:17;;;;;;;0.55;0.50;;;;;;;-148.56;100.00;61375.16;5004983;28;20140;-33
2022/06/24 10:54:01;;;;;;;1.05;0.55;;;;;;;-148.56;100.00;61375.16;5005731;28;20038;-38
2022/06/24 10:56:35;;;;;;;0.80;0.60;;;;;;;-148.56;100.00;61375.16;5009268;28;20559;-36
2022/06/24 10:59:00;;;;;;;0.35;0.35;;;;;;;-148.56;100.00;61375.16;5011606;28;20110;-34
2022/06/24 11:01:26;;;;;;;0.52;0.47;;;;;;;-148.56;100.00;61375.16;5008393;28;20471;-37
2022/06/24 11:03:51;;;;;;;0.40;0.40;;;;;;;-148.56;100.00;61375.16;5005481;28;20108;-36
2022/06/24 11:06:16;;;;;;;0.82;0.40;;;;;;;-148.56;100.00;61375.16;4993282;28;20033;-35
2022/06/24 11:08:42;;;;;;;1.00;0.63;;;;;;;-148.56;100.00;61375.16;5012166;28;20076;-33
2022/06/24 11:11:07;;;;;;;0.50;0.50;;;;;;;-148.56;100.00;61375.16;5003966;28;20037;-35
2022/06/24 11:13:33;;;;;;;0.80;0.50;;;;;;;-148.56;100.00;61375.16;5004342;28;20397;-34
2022/06/24 11:15:58;;;;;;;0.50;0.50;;;;;;;-148.56;100.00;61375.16;5006210;28;20048;-37
2022/06/24 11:18:25;;;;;;;0.30;0.30;;;;;;;-148.56;100.00;61375.16;5008557;28;20044;-34
2022/06/24 11:20:54;;;;;;;0.50;0.40;;;;;;;-148.56;100.00;61375.16;5008109;28;20032;-35
2022/06/24 11:23:21;;;;;;;0.85;0.40;;;;;;;-148.56;100.00;61375.16;5004658;28;20060;-37